createdAt,value
2022-12-23T00:01:22.312Z,11.30
2022-12-23T00:03:49.159Z,11.30
2022-12-23T00:06:17.458Z,11.30
2022-12-23T00:08:45.024Z,11.30
2022-12-23T00:11:15.591Z,11.30
2022-12-23T00:14:01.175Z,11.30
2022-12-23T00:16:28.518Z,11.20
2022-12-23T00:18:55.539Z,11.30
2022-12-23T00:21:22.939Z,11.30
2022-12-23T00:23:51.411Z,11.30
2022-12-23T00:26:22.413Z,11.30
2022-12-23T00:28:50.063Z,11.30
2022-12-23T00:31:18.838Z,11.30
2022-12-23T00:33:48.531Z,11.50
2022-12-23T00:36:21.098Z,11.30
2022-12-23T00:39:06.895Z,11.40
2022-12-23T00:41:52.365Z,11.30
2022-12-23T00:44:19.192Z,11.40
2022-12-23T00:46:46.012Z,11.20
2022-12-23T00:49:33.017Z,11.30
2022-12-23T00:51:59.738Z,11.30
2022-12-23T00:54:26.531Z,11.30
2022-12-23T00:56:53.682Z,11.30
2022-12-23T00:59:20.487Z,11.30
2022-12-23T01:02:06.215Z,11.40
2022-12-23T01:04:51.848Z,11.30
2022-12-23T01:07:18.667Z,11.30
2022-12-23T01:09:45.615Z,11.30
2022-12-23T01:12:13.702Z,11.40
2022-12-23T01:14:40.667Z,12.00
2022-12-23T01:17:08.349Z,11.40
2022-12-23T01:19:35.280Z,11.40
2022-12-23T01:22:01.936Z,11.50
2022-12-23T01:24:30.486Z,11.50
2022-12-23T01:26:57.830Z,11.50
2022-12-23T01:29:24.969Z,11.40
2022-12-23T01:31:51.765Z,11.50
2022-12-23T01:34:18.495Z,11.60
2022-12-23T01:36:45.172Z,11.60
2022-12-23T01:39:12.162Z,11.60
2022-12-23T01:41:57.778Z,11.60
2022-12-23T01:44:46.057Z,11.60
2022-12-23T01:47:22.289Z,11.60
2022-12-23T01:49:52.611Z,11.60
2022-12-23T01:52:19.615Z,11.90
2022-12-23T01:54:46.368Z,11.70
2022-12-23T01:57:13.135Z,11.80
2022-12-23T01:59:59.380Z,12.10
2022-12-23T02:02:47.255Z,11.90
2022-12-23T02:05:14.271Z,12.10
2022-12-23T02:08:00.043Z,12.10
2022-12-23T02:10:35.960Z,12.30
2022-12-23T02:13:34.455Z,12.20
2022-12-23T02:16:17.820Z,12.20
2022-12-23T02:19:09.999Z,12.20
2022-12-23T02:21:39.705Z,13.40
2022-12-23T02:24:28.032Z,12.30
2022-12-23T02:27:44.373Z,12.30
2022-12-23T02:30:32.912Z,12.40
2022-12-23T02:33:11.813Z,12.40
2022-12-23T02:35:48.347Z,12.40
2022-12-23T02:38:32.814Z,12.50
2022-12-23T02:41:05.766Z,12.50
2022-12-23T02:43:57.038Z,12.50
2022-12-23T02:46:58.523Z,12.50
2022-12-23T02:49:40.157Z,12.60
2022-12-23T02:52:13.653Z,12.60
2022-12-23T02:54:52.357Z,12.60
2022-12-23T02:57:25.394Z,12.60
2022-12-23T02:59:52.941Z,12.60
2022-12-23T03:02:20.137Z,12.60
2022-12-23T03:04:46.933Z,12.60
2022-12-23T03:07:25.667Z,12.60
2022-12-23T03:10:05.815Z,12.60
2022-12-23T03:12:44.575Z,12.60
2022-12-23T03:15:34.208Z,12.60
2022-12-23T03:18:08.551Z,12.60
2022-12-23T03:20:43.979Z,12.60
2022-12-23T03:23:16.917Z,12.60
2022-12-23T03:26:11.853Z,12.60
2022-12-23T03:29:17.323Z,12.70
2022-12-23T03:31:45.555Z,12.60
2022-12-23T03:34:19.425Z,12.70
2022-12-23T03:36:50.991Z,12.70
2022-12-23T03:39:20.842Z,12.70
2022-12-23T03:42:04.440Z,12.80
2022-12-23T03:44:37.090Z,14.20
2022-12-23T03:47:14.170Z,12.80
2022-12-23T03:49:47.892Z,12.80
2022-12-23T03:52:21.468Z,12.90
2022-12-23T03:54:57.982Z,12.90
2022-12-23T03:57:34.406Z,13.40
2022-12-23T04:00:01.393Z,12.90
2022-12-23T04:03:13.201Z,13.20
2022-12-23T04:05:41.853Z,12.90
2022-12-23T04:08:30.915Z,12.90
2022-12-23T04:10:59.182Z,12.90
2022-12-23T04:13:27.525Z,13.10
2022-12-23T04:15:54.577Z,12.90
2022-12-23T04:18:21.396Z,13.00
2022-12-23T04:20:48.218Z,13.00
2022-12-23T04:23:14.907Z,13.00
2022-12-23T04:25:41.668Z,13.10
2022-12-23T04:28:08.454Z,13.00
2022-12-23T04:30:35.210Z,13.00
2022-12-23T04:33:02.713Z,13.00
2022-12-23T04:35:30.440Z,13.00
2022-12-23T04:37:57.142Z,13.00
2022-12-23T04:40:23.848Z,13.00
2022-12-23T04:42:50.591Z,13.00
2022-12-23T04:45:17.364Z,13.00
2022-12-23T04:47:44.056Z,13.00
2022-12-23T04:50:14.636Z,13.00
2022-12-23T04:52:42.024Z,13.10
2022-12-23T04:55:09.230Z,13.00
2022-12-23T04:57:36.059Z,13.00
2022-12-23T05:00:04.163Z,13.00
2022-12-23T05:02:31.069Z,13.00
2022-12-23T05:04:57.845Z,13.00
2022-12-23T05:07:25.196Z,13.00
2022-12-23T05:09:51.922Z,13.40
2022-12-23T05:12:18.736Z,13.10
2022-12-23T05:14:45.411Z,13.10
2022-12-23T05:17:12.192Z,13.00
2022-12-23T05:19:38.858Z,13.10
2022-12-23T05:22:06.751Z,13.10
2022-12-23T05:24:33.792Z,13.10
2022-12-23T05:27:01.333Z,13.10
2022-12-23T05:29:29.108Z,13.10
2022-12-23T05:31:56.272Z,13.10
2022-12-23T05:34:23.005Z,13.20
2022-12-23T05:36:49.784Z,13.10
2022-12-23T05:39:16.520Z,13.10
2022-12-23T05:41:43.318Z,13.10
2022-12-23T05:44:10.193Z,13.10
2022-12-23T05:46:36.971Z,13.10
2022-12-23T05:49:03.750Z,13.10
2022-12-23T05:51:30.498Z,13.10
2022-12-23T05:53:57.290Z,13.10
2022-12-23T05:56:24.014Z,13.10
2022-12-23T05:58:50.661Z,13.10
2022-12-23T06:01:18.608Z,13.10
2022-12-23T06:03:45.424Z,13.10
2022-12-23T06:06:12.341Z,13.10
2022-12-23T06:08:39.057Z,13.10
2022-12-23T06:11:05.943Z,13.00
2022-12-23T06:13:32.718Z,13.10
2022-12-23T06:15:59.714Z,13.10
2022-12-23T06:18:26.437Z,13.20
2022-12-23T06:20:53.199Z,13.10
2022-12-23T06:23:19.971Z,13.10
2022-12-23T06:25:46.819Z,13.60
2022-12-23T06:28:13.555Z,13.60
2022-12-23T06:30:40.356Z,13.20
2022-12-23T06:33:07.046Z,13.10
2022-12-23T06:35:33.735Z,13.10
2022-12-23T06:38:00.550Z,13.30
2022-12-23T06:40:29.226Z,13.20
2022-12-23T06:42:56.155Z,13.20
2022-12-23T06:45:22.884Z,13.20
2022-12-23T06:47:49.671Z,13.20
2022-12-23T06:50:16.435Z,13.20
2022-12-23T06:52:43.418Z,13.20
2022-12-23T06:55:10.159Z,13.10
2022-12-23T06:57:37.018Z,13.20
2022-12-23T07:00:05.433Z,13.10
2022-12-23T07:02:32.259Z,13.10
2022-12-23T07:04:58.991Z,13.10
2022-12-23T07:07:25.804Z,13.10
2022-12-23T07:09:52.713Z,13.10
2022-12-23T07:12:19.449Z,13.10
2022-12-23T07:14:46.414Z,13.10
2022-12-23T07:17:13.292Z,13.20
2022-12-23T07:19:41.716Z,13.10
2022-12-23T07:22:10.214Z,13.10
2022-12-23T07:24:37.765Z,13.10
2022-12-23T07:27:04.758Z,13.00
2022-12-23T07:29:31.566Z,13.00
2022-12-23T07:31:58.475Z,13.00
2022-12-23T07:34:25.337Z,13.10
2022-12-23T07:36:52.253Z,12.90
2022-12-23T07:39:18.945Z,12.90
2022-12-23T07:41:45.723Z,13.20
2022-12-23T07:44:12.671Z,12.90
2022-12-23T07:46:39.814Z,12.90
2022-12-23T07:49:06.827Z,13.10
2022-12-23T07:51:33.624Z,13.00
2022-12-23T07:54:00.342Z,13.00
2022-12-23T07:56:27.405Z,13.00
2022-12-23T07:58:54.759Z,13.00
2022-12-23T08:01:22.192Z,13.00
2022-12-23T08:03:49.452Z,13.00
2022-12-23T08:06:17.051Z,13.00
2022-12-23T08:08:46.025Z,13.00
2022-12-23T08:11:14.351Z,13.00
2022-12-23T08:13:42.792Z,13.20
2022-12-23T08:16:10.600Z,13.00
2022-12-23T08:18:40.116Z,13.10
2022-12-23T08:21:12.260Z,13.20
2022-12-23T08:23:39.053Z,13.00
2022-12-23T08:26:06.979Z,13.10
2022-12-23T08:28:34.776Z,13.90
2022-12-23T08:31:06.602Z,13.10
2022-12-23T08:33:34.084Z,13.10
2022-12-23T08:36:01.270Z,13.10
2022-12-23T08:38:28.028Z,13.10
2022-12-23T08:40:54.716Z,13.10
2022-12-23T08:43:21.642Z,13.10
2022-12-23T08:45:48.604Z,13.10
2022-12-23T08:48:16.029Z,13.60
2022-12-23T08:50:45.144Z,13.20
2022-12-23T08:53:12.773Z,13.20
2022-12-23T08:55:41.788Z,13.20
2022-12-23T08:58:09.380Z,13.20
2022-12-23T09:00:36.699Z,13.20
2022-12-23T09:03:04.588Z,13.20
2022-12-23T09:05:32.523Z,13.20
2022-12-23T09:08:00.217Z,13.20
2022-12-23T09:10:27.007Z,13.20
2022-12-23T09:12:55.206Z,13.20
2022-12-23T09:15:23.668Z,13.20
2022-12-23T09:17:50.702Z,13.20
2022-12-23T09:20:17.392Z,13.20
2022-12-23T09:22:44.069Z,13.20
2022-12-23T09:25:11.017Z,13.20
2022-12-23T09:27:38.016Z,13.20
2022-12-23T09:30:05.193Z,13.20
2022-12-23T09:32:32.724Z,13.30
2022-12-23T09:34:59.480Z,14.40
2022-12-23T09:37:26.172Z,13.30
2022-12-23T09:39:52.925Z,13.30
2022-12-23T09:42:48.953Z,14.50
2022-12-23T09:45:52.641Z,13.30
2022-12-23T09:48:25.439Z,13.40
2022-12-23T09:50:53.027Z,13.40
2022-12-23T09:53:22.442Z,13.40
2022-12-23T09:56:28.128Z,13.70
2022-12-23T09:59:33.735Z,13.40
2022-12-23T10:02:05.647Z,13.50
2022-12-23T10:04:41.930Z,13.40
2022-12-23T10:07:25.597Z,13.50
2022-12-23T10:09:55.348Z,13.50
2022-12-23T10:12:41.948Z,13.50
2022-12-23T10:15:29.969Z,13.50
2022-12-23T10:18:02.850Z,13.60
2022-12-23T10:20:49.430Z,13.50
2022-12-23T10:23:21.064Z,13.50
2022-12-23T10:25:52.477Z,13.50
2022-12-23T10:28:19.479Z,13.50
2022-12-23T10:34:02.860Z,13.50
2022-12-23T10:37:01.173Z,13.60
2022-12-23T10:39:46.402Z,13.60
2022-12-23T10:42:27.432Z,13.50
2022-12-23T10:44:57.158Z,13.60
2022-12-23T10:47:45.760Z,13.50
2022-12-23T10:50:15.382Z,13.60
2022-12-23T10:52:45.491Z,13.60
2022-12-23T10:55:34.105Z,13.50
2022-12-23T10:58:09.203Z,13.60
2022-12-23T11:00:38.954Z,13.50
2022-12-23T11:03:20.122Z,13.60
2022-12-23T11:05:50.725Z,13.60
2022-12-23T11:08:18.733Z,13.80
2022-12-23T11:10:46.085Z,13.60
2022-12-23T11:13:43.352Z,13.60
2022-12-23T11:16:26.354Z,13.60
2022-12-23T11:18:54.795Z,13.60
2022-12-23T11:21:21.737Z,13.60
2022-12-23T11:23:56.631Z,13.60
2022-12-23T11:26:24.779Z,13.60
2022-12-23T11:28:56.180Z,13.60
2022-12-23T11:31:29.248Z,13.60
2022-12-23T11:34:12.814Z,13.70
2022-12-23T11:36:39.586Z,13.70
2022-12-23T11:39:35.087Z,13.80
2022-12-23T11:42:12.170Z,13.70
2022-12-23T11:44:47.764Z,13.70
2022-12-23T11:47:20.262Z,13.70
2022-12-23T11:50:20.750Z,13.70
2022-12-23T11:53:01.510Z,13.70
2022-12-23T11:55:32.886Z,13.70
2022-12-23T11:58:01.467Z,13.70
2022-12-23T12:00:40.355Z,13.70
2022-12-23T12:03:17.947Z,13.70
2022-12-23T12:06:01.076Z,13.70
2022-12-23T12:08:32.994Z,13.70
2022-12-23T12:11:07.612Z,13.70
2022-12-23T12:13:44.057Z,13.70
2022-12-23T12:16:51.855Z,13.70
2022-12-23T12:19:25.842Z,13.70
2022-12-23T12:21:59.327Z,13.60
2022-12-23T12:24:31.919Z,13.70
2022-12-23T12:27:05.467Z,13.60
2022-12-23T12:29:38.144Z,13.60
2022-12-23T12:32:15.622Z,13.60
2022-12-23T12:34:53.930Z,13.70
2022-12-23T12:37:35.851Z,13.60
2022-12-23T12:40:23.429Z,13.70
2022-12-23T12:43:18.667Z,13.60
2022-12-23T12:45:48.200Z,13.60
2022-12-23T12:48:48.998Z,13.60
2022-12-23T12:51:37.947Z,13.60
2022-12-23T12:54:41.732Z,13.60
2022-12-23T12:57:15.033Z,13.60
2022-12-23T12:59:43.204Z,13.70
2022-12-23T13:02:46.999Z,13.60
2022-12-23T13:05:53.388Z,13.70
2022-12-23T13:09:10.663Z,13.60
2022-12-23T13:12:15.743Z,13.60
2022-12-23T13:14:57.776Z,13.60
2022-12-23T13:17:34.342Z,13.60
2022-12-23T13:20:09.428Z,13.70
2022-12-23T13:22:38.547Z,13.70
2022-12-23T13:25:22.423Z,13.70
2022-12-23T13:27:56.169Z,13.70
2022-12-23T13:30:26.442Z,13.70
2022-12-23T13:33:09.010Z,13.70
2022-12-23T13:35:39.791Z,13.70
2022-12-23T13:38:21.186Z,13.70
2022-12-23T13:41:03.879Z,13.70
2022-12-23T13:43:46.145Z,13.70
2022-12-23T13:46:22.347Z,13.70
2022-12-23T13:49:02.546Z,13.70
2022-12-23T13:52:05.542Z,13.70
2022-12-23T13:54:45.165Z,13.70
2022-12-23T13:57:20.923Z,13.70
2022-12-23T14:00:16.142Z,13.70
2022-12-23T14:03:02.882Z,13.70
2022-12-23T14:05:34.287Z,13.70
2022-12-23T14:08:05.236Z,13.70
2022-12-23T14:10:33.212Z,13.70
2022-12-23T14:13:06.745Z,13.70
2022-12-23T14:15:55.646Z,13.70
2022-12-23T14:18:50.472Z,13.70
2022-12-23T14:21:42.721Z,13.70
2022-12-23T14:24:42.792Z,13.70
2022-12-23T14:27:38.650Z,13.70
2022-12-23T14:30:21.309Z,13.80
2022-12-23T14:32:53.695Z,13.70
2022-12-23T14:35:28.449Z,13.90
2022-12-23T14:38:16.837Z,13.80
2022-12-23T14:40:43.817Z,13.80
2022-12-23T14:43:45.633Z,13.80
2022-12-23T14:46:35.692Z,13.70
2022-12-23T14:49:37.122Z,13.70
2022-12-23T14:51:50.943Z,13.80
2022-12-23T14:54:36.390Z,13.70
2022-12-23T14:57:13.768Z,13.80
2022-12-23T14:59:53.773Z,13.70
2022-12-23T15:02:37.217Z,13.70
2022-12-23T15:05:04.537Z,13.70
2022-12-23T15:07:43.460Z,13.70
2022-12-23T15:10:21.333Z,13.70
2022-12-23T15:12:52.489Z,13.80
2022-12-23T15:15:25.158Z,13.70
2022-12-23T15:18:02.889Z,13.70
2022-12-23T15:20:29.602Z,13.70
2022-12-23T15:23:01.078Z,13.80
2022-12-23T15:25:32.347Z,13.70
2022-12-23T15:28:02.463Z,14.10
2022-12-23T15:30:36.292Z,13.80
2022-12-23T15:33:27.930Z,13.80
2022-12-23T15:35:54.432Z,13.80
2022-12-23T15:38:22.973Z,13.80
2022-12-23T15:41:02.904Z,14.40
2022-12-23T15:43:29.942Z,13.80
2022-12-23T15:46:09.818Z,13.80
2022-12-23T15:48:38.049Z,13.80
2022-12-23T15:51:14.254Z,13.80
2022-12-23T15:53:43.823Z,13.90
2022-12-23T15:56:22.648Z,13.90
2022-12-23T15:58:50.273Z,13.90
2022-12-23T16:01:18.472Z,14.00
2022-12-23T16:03:59.809Z,13.90
2022-12-23T16:06:31.877Z,14.00
2022-12-23T16:09:25.999Z,14.00
2022-12-23T16:12:23.498Z,14.00
2022-12-23T16:14:55.877Z,14.10
2022-12-23T16:17:31.927Z,14.10
2022-12-23T16:20:20.084Z,14.10
2022-12-23T16:22:51.308Z,14.10
2022-12-23T16:25:32.704Z,14.10
2022-12-23T16:28:08.841Z,14.10
2022-12-23T16:30:43.859Z,14.10
2022-12-23T16:33:27.929Z,14.20
2022-12-23T16:35:55.989Z,14.30
2022-12-23T16:38:26.795Z,14.30
2022-12-23T16:40:56.344Z,14.30
2022-12-23T16:43:25.193Z,14.30
2022-12-23T16:45:57.123Z,14.50
2022-12-23T16:48:36.461Z,14.40
2022-12-23T16:51:07.703Z,14.40
2022-12-23T16:53:34.819Z,14.40
2022-12-23T16:56:02.500Z,14.40
2022-12-23T16:58:29.723Z,14.40
2022-12-23T17:00:56.875Z,14.50
2022-12-23T17:03:23.755Z,14.50
2022-12-23T17:05:50.525Z,14.50
2022-12-23T17:08:17.358Z,14.60
2022-12-23T17:10:44.931Z,14.60
2022-12-23T17:13:14.029Z,14.70
2022-12-23T17:15:40.758Z,14.60
2022-12-23T17:18:17.367Z,14.60
2022-12-23T17:20:46.590Z,14.60
2022-12-23T17:23:39.806Z,14.60
2022-12-23T17:26:06.659Z,14.60
2022-12-23T17:28:33.357Z,14.70
2022-12-23T17:31:00.618Z,14.60
2022-12-23T17:33:31.262Z,14.70
2022-12-23T17:35:58.965Z,14.60
2022-12-23T17:38:28.953Z,14.70
2022-12-23T17:40:58.676Z,14.70
2022-12-23T17:43:26.109Z,14.80
2022-12-23T17:45:52.955Z,14.70
2022-12-23T17:48:22.326Z,14.70
2022-12-23T17:50:51.077Z,14.70
2022-12-23T17:53:19.210Z,14.70
2022-12-23T17:55:46.628Z,14.70
2022-12-23T17:58:14.393Z,14.70
2022-12-23T18:00:41.742Z,14.80
2022-12-23T18:03:23.286Z,14.80
2022-12-23T18:05:54.315Z,14.80
2022-12-23T18:08:26.002Z,14.80
2022-12-23T18:10:52.770Z,14.70
2022-12-23T18:13:20.353Z,14.80
2022-12-23T18:15:47.792Z,14.80
2022-12-23T18:18:32.996Z,14.80
2022-12-23T18:21:06.029Z,14.80
2022-12-23T18:23:34.460Z,14.90
2022-12-23T18:26:01.381Z,14.90
2022-12-23T18:28:28.114Z,14.80
2022-12-23T18:30:57.035Z,14.80
2022-12-23T18:33:29.421Z,14.80
2022-12-23T18:35:56.331Z,16.10
2022-12-23T18:38:23.281Z,14.70
2022-12-23T18:40:53.892Z,15.20
2022-12-23T18:43:23.496Z,14.50
2022-12-23T18:45:53.517Z,14.40
2022-12-23T18:48:21.747Z,14.30
2022-12-23T18:50:48.750Z,14.20
2022-12-23T18:53:24.729Z,14.10
2022-12-23T18:55:53.456Z,14.00
2022-12-23T18:58:20.507Z,14.00
2022-12-23T19:00:48.000Z,14.00
2022-12-23T19:03:26.700Z,14.00
2022-12-23T19:05:54.898Z,14.00
2022-12-23T19:08:26.758Z,14.10
2022-12-23T19:10:55.209Z,14.10
2022-12-23T19:13:22.050Z,14.00
2022-12-23T19:15:48.972Z,14.00
2022-12-23T19:18:19.309Z,14.00
2022-12-23T19:20:47.726Z,14.80
2022-12-23T19:23:15.250Z,14.00
2022-12-23T19:25:52.710Z,14.00
2022-12-23T19:28:22.258Z,14.10
2022-12-23T19:30:49.405Z,14.00
2022-12-23T19:33:16.483Z,14.00
2022-12-23T19:35:44.207Z,14.00
2022-12-23T19:38:12.240Z,14.00
2022-12-23T19:40:39.134Z,14.20
2022-12-23T19:43:06.014Z,14.10
2022-12-23T19:45:32.884Z,14.00
2022-12-23T19:47:59.700Z,14.10
2022-12-23T19:50:27.218Z,14.10
2022-12-23T19:52:56.148Z,14.10
2022-12-23T19:55:23.457Z,14.00
2022-12-23T19:57:50.148Z,14.00
2022-12-23T20:00:16.921Z,14.00
2022-12-23T20:02:43.687Z,14.00
2022-12-23T20:05:10.478Z,14.00
2022-12-23T20:07:37.761Z,14.00
2022-12-23T20:10:05.667Z,13.90
2022-12-23T20:12:32.608Z,14.00
2022-12-23T20:14:59.381Z,13.90
2022-12-23T20:17:26.233Z,14.00
2022-12-23T20:19:52.936Z,14.00
2022-12-23T20:22:19.765Z,14.00
2022-12-23T20:24:46.529Z,14.00
2022-12-23T20:27:15.751Z,14.00
2022-12-23T20:29:42.882Z,14.00
2022-12-23T20:32:09.573Z,13.90
2022-12-23T20:34:39.633Z,14.00
2022-12-23T20:37:07.143Z,14.00
2022-12-23T20:39:34.235Z,14.10
2022-12-23T20:42:01.134Z,14.00
2022-12-23T20:44:37.086Z,14.00
2022-12-23T20:47:05.661Z,14.00
2022-12-23T20:49:32.459Z,14.00
2022-12-23T20:51:59.306Z,14.60
2022-12-23T20:54:32.182Z,14.10
2022-12-23T20:57:01.087Z,14.00
2022-12-23T20:59:28.012Z,14.20
2022-12-23T21:01:55.000Z,14.00
2022-12-23T21:04:22.547Z,14.00
2022-12-23T21:06:49.399Z,13.90
2022-12-23T21:09:16.861Z,14.00
2022-12-23T21:11:46.227Z,14.00
2022-12-23T21:14:14.515Z,14.00
2022-12-23T21:16:42.337Z,14.00
2022-12-23T21:19:14.897Z,13.90
2022-12-23T21:21:42.317Z,13.80
2022-12-23T21:24:10.162Z,13.90
2022-12-23T21:26:37.036Z,13.90
2022-12-23T21:29:06.552Z,13.80
2022-12-23T21:31:35.836Z,13.80
2022-12-23T21:34:03.089Z,13.80
2022-12-23T21:36:32.901Z,13.90
2022-12-23T21:39:00.410Z,13.90
2022-12-23T21:41:30.005Z,13.90
2022-12-23T21:43:58.034Z,13.80
2022-12-23T21:46:25.713Z,13.80
2022-12-23T21:48:52.694Z,13.80
2022-12-23T21:51:20.698Z,13.80
2022-12-23T21:53:50.435Z,13.80
2022-12-23T21:56:24.367Z,13.80
2022-12-23T21:58:56.098Z,13.80
2022-12-23T22:01:22.896Z,13.80
2022-12-23T22:03:51.173Z,13.80
2022-12-23T22:06:23.491Z,13.70
2022-12-23T22:08:52.028Z,13.70
2022-12-23T22:11:24.392Z,13.70
2022-12-23T22:13:51.894Z,13.70
2022-12-23T22:16:21.448Z,13.70
2022-12-23T22:18:49.322Z,13.70
2022-12-23T22:21:19.622Z,14.40
2022-12-23T22:23:47.529Z,13.70
2022-12-23T22:26:24.550Z,13.70
2022-12-23T22:28:52.623Z,13.70
2022-12-23T22:31:36.707Z,13.70
2022-12-23T22:34:04.849Z,13.70
2022-12-23T22:36:32.252Z,13.60
2022-12-23T22:39:00.808Z,13.60
2022-12-23T22:41:29.333Z,13.70
2022-12-23T22:43:57.145Z,13.60
2022-12-23T22:46:24.544Z,13.60
2022-12-23T22:48:52.190Z,13.60
2022-12-23T22:51:22.601Z,13.60
2022-12-23T22:53:49.453Z,13.50
2022-12-23T22:56:17.624Z,13.60
2022-12-23T22:58:44.468Z,13.60
2022-12-23T23:01:30.445Z,13.50
2022-12-23T23:03:59.796Z,13.60
2022-12-23T23:06:28.938Z,13.50
2022-12-23T23:08:56.248Z,13.50
2022-12-23T23:11:24.409Z,13.40
2022-12-23T23:13:52.084Z,13.40
2022-12-23T23:16:18.949Z,13.50
2022-12-23T23:18:45.789Z,13.40
2022-12-23T23:21:14.024Z,13.30
2022-12-23T23:23:40.936Z,13.30
2022-12-23T23:26:10.748Z,13.30
2022-12-23T23:28:41.374Z,13.30
2022-12-23T23:33:55.787Z,13.30
2022-12-23T23:36:22.544Z,13.30
2022-12-23T23:38:49.275Z,13.20
2022-12-23T23:41:22.421Z,13.20
2022-12-23T23:43:50.156Z,13.20
2022-12-23T23:46:16.928Z,13.20
2022-12-23T23:48:43.698Z,13.20
2022-12-23T23:51:10.375Z,13.20
2022-12-23T23:53:37.146Z,13.20
2022-12-23T23:56:07.809Z,13.10
2022-12-23T23:58:35.882Z,13.20
